createdAt,value
2022-12-21T00:02:22.325Z,248.47
2022-12-21T00:12:27.583Z,252.47
2022-12-21T00:22:31.412Z,253.43
2022-12-21T00:32:37.635Z,258.60
2022-12-21T00:42:41.406Z,248.50
2022-12-21T00:52:46.709Z,226.27
2022-12-21T01:02:50.889Z,247.50
2022-12-21T01:12:56.649Z,233.00
2022-12-21T01:23:00.525Z,242.80
2022-12-21T01:33:05.625Z,242.17
2022-12-21T01:43:19.832Z,269.63
2022-12-21T01:53:30.412Z,272.23
2022-12-21T02:03:50.905Z,281.67
2022-12-21T02:13:56.109Z,276.13
2022-12-21T02:24:55.182Z,276.60
2022-12-21T02:35:11.392Z,285.43
2022-12-21T02:45:25.463Z,281.23
2022-12-21T02:55:30.761Z,302.77
2022-12-21T03:05:54.167Z,288.83
2022-12-21T03:16:06.388Z,289.57
2022-12-21T03:26:17.577Z,286.77
2022-12-21T03:36:29.850Z,286.97
2022-12-21T03:46:39.638Z,273.07
2022-12-21T03:56:45.408Z,277.53
2022-12-21T04:06:51.304Z,274.83
2022-12-21T04:16:56.530Z,273.13
2022-12-21T04:27:26.398Z,267.53
2022-12-21T04:37:35.483Z,255.67
2022-12-21T04:47:39.260Z,258.67
2022-12-21T04:57:44.415Z,248.03
2022-12-21T05:07:48.168Z,269.93
2022-12-21T05:17:53.383Z,273.57
2022-12-21T05:27:57.052Z,275.63
2022-12-21T05:38:02.294Z,295.00
2022-12-21T05:48:06.384Z,297.90
2022-12-21T05:58:12.061Z,304.57
2022-12-21T06:08:16.399Z,298.87
2022-12-21T06:18:21.589Z,312.40
2022-12-21T06:28:27.869Z,305.13
2022-12-21T06:38:34.087Z,297.50
2022-12-21T06:48:39.718Z,292.40
2022-12-21T06:58:45.247Z,318.17
2022-12-21T07:08:49.864Z,323.13
2022-12-21T07:18:55.502Z,325.13
2022-12-21T07:28:59.272Z,319.67
2022-12-21T07:39:04.411Z,326.67
2022-12-21T07:49:08.238Z,316.83
2022-12-21T07:59:13.509Z,333.07
2022-12-21T08:09:17.588Z,325.47
2022-12-21T08:19:22.735Z,324.17
2022-12-21T08:29:27.583Z,323.67
2022-12-21T08:39:32.835Z,303.73
2022-12-21T08:49:36.574Z,316.93
2022-12-21T08:59:46.570Z,331.73
2022-12-21T09:09:52.346Z,328.37
2022-12-21T09:19:57.414Z,329.00
2022-12-21T09:30:01.041Z,341.30
2022-12-21T09:40:09.387Z,351.13
2022-12-21T09:50:21.356Z,346.87
2022-12-21T10:00:27.754Z,360.43
2022-12-21T10:10:37.929Z,329.43
2022-12-21T10:20:58.086Z,320.57
2022-12-21T10:31:07.295Z,304.70
2022-12-21T10:41:18.001Z,314.40
2022-12-21T10:51:30.304Z,299.10
2022-12-21T11:01:36.024Z,311.17
2022-12-21T11:11:40.655Z,295.17
2022-12-21T11:21:50.783Z,295.97
2022-12-21T11:31:56.746Z,274.80
2022-12-21T11:42:02.000Z,288.53
2022-12-21T11:52:15.401Z,276.57
2022-12-21T12:02:55.064Z,288.80
2022-12-21T12:13:10.511Z,283.27
2022-12-21T12:23:26.109Z,272.53
2022-12-21T12:33:46.192Z,274.53
2022-12-21T12:43:59.718Z,277.50
2022-12-21T12:54:13.032Z,279.40
2022-12-21T13:04:47.619Z,272.63
2022-12-21T13:14:58.066Z,276.77
2022-12-21T13:25:08.426Z,297.33
2022-12-21T13:35:23.192Z,285.10
2022-12-21T13:45:42.126Z,280.57
2022-12-21T13:55:55.460Z,281.30
2022-12-21T14:06:26.561Z,281.00
2022-12-21T14:16:34.375Z,283.60
2022-12-21T14:26:46.085Z,293.27
2022-12-21T14:37:27.244Z,290.73
2022-12-21T14:47:32.211Z,295.80
2022-12-21T14:57:40.935Z,305.90
2022-12-21T15:07:51.963Z,309.53
2022-12-21T15:18:24.920Z,301.57
2022-12-21T15:28:26.367Z,328.40
2022-12-21T15:38:38.778Z,323.50
2022-12-21T15:48:49.750Z,324.70
2022-12-21T15:58:54.137Z,306.53
2022-12-21T16:08:59.452Z,315.53
2022-12-21T16:19:22.448Z,298.50
2022-12-21T16:29:29.873Z,274.87
2022-12-21T16:39:34.593Z,270.73
2022-12-21T16:49:40.370Z,270.37
2022-12-21T16:59:45.745Z,264.87
2022-12-21T17:09:55.075Z,259.67
2022-12-21T17:20:17.418Z,285.23
2022-12-21T17:30:25.945Z,271.17
2022-12-21T17:40:30.074Z,282.17
2022-12-21T17:50:38.936Z,290.60
2022-12-21T18:00:44.674Z,281.40
2022-12-21T18:10:50.680Z,292.60
2022-12-21T18:20:55.345Z,273.00
2022-12-21T18:31:03.968Z,281.43
2022-12-21T18:41:09.849Z,320.13
2022-12-21T18:51:27.989Z,309.17
2022-12-21T19:01:35.803Z,303.30
2022-12-21T19:11:41.154Z,307.47
2022-12-21T19:21:45.799Z,296.43
2022-12-21T19:31:51.735Z,293.37
2022-12-21T19:41:56.105Z,297.40
2022-12-21T19:52:01.698Z,315.13
2022-12-21T20:02:21.615Z,335.23
2022-12-21T20:12:27.322Z,319.83
2022-12-21T20:22:31.176Z,343.43
2022-12-21T20:32:36.956Z,334.10
2022-12-21T20:42:58.005Z,343.73
2022-12-21T20:53:06.517Z,340.73
2022-12-21T21:03:33.085Z,323.13
2022-12-21T21:13:38.493Z,337.77
2022-12-21T21:23:42.468Z,339.87
2022-12-21T21:33:47.809Z,352.40
2022-12-21T21:43:51.677Z,316.13
2022-12-21T21:53:57.360Z,324.13
2022-12-21T22:04:01.105Z,294.80
2022-12-21T22:14:06.278Z,284.07
2022-12-21T22:24:29.812Z,290.43
2022-12-21T22:34:58.421Z,296.30
2022-12-21T22:45:23.355Z,294.80
2022-12-21T22:55:32.729Z,275.90
2022-12-21T23:05:36.748Z,291.73
2022-12-21T23:15:42.331Z,285.83
2022-12-21T23:26:07.381Z,279.20
2022-12-21T23:36:37.250Z,274.77
2022-12-21T23:46:58.261Z,293.77
2022-12-21T23:57:21.681Z,280.60
